sensor_id;sensor_type;location;lat;lon;timestamp;P1;durP1;ratioP1;P2;durP2;ratioP2
61017;SDS011;48171;51.550;5.434;2022-08-21T00:01:16;7.72;;;4.60;;
61017;SDS011;48171;51.550;5.434;2022-08-21T00:03:43;9.10;;;4.63;;
61017;SDS011;48171;51.550;5.434;2022-08-21T00:06:09;7.25;;;4.22;;
61017;SDS011;48171;51.550;5.434;2022-08-21T00:08:35;10.18;;;5.10;;
61017;SDS011;48171;51.550;5.434;2022-08-21T00:11:00;9.00;;;5.13;;
61017;SDS011;48171;51.550;5.434;2022-08-21T00:13:26;9.88;;;4.80;;
61017;SDS011;48171;51.550;5.434;2022-08-21T00:15:51;9.38;;;4.78;;
61017;SDS011;48171;51.550;5.434;2022-08-21T00:18:17;8.98;;;4.97;;
61017;SDS011;48171;51.550;5.434;2022-08-21T00:20:43;8.20;;;4.63;;
61017;SDS011;48171;51.550;5.434;2022-08-21T00:23:10;8.75;;;4.65;;
61017;SDS011;48171;51.550;5.434;2022-08-21T00:25:36;9.93;;;5.38;;
61017;SDS011;48171;51.550;5.434;2022-08-21T00:28:02;9.15;;;5.70;;
61017;SDS011;48171;51.550;5.434;2022-08-21T00:30:27;12.65;;;5.65;;
61017;SDS011;48171;51.550;5.434;2022-08-21T00:32:53;11.45;;;5.65;;
61017;SDS011;48171;51.550;5.434;2022-08-21T00:35:22;8.20;;;4.97;;
61017;SDS011;48171;51.550;5.434;2022-08-21T00:37:50;10.35;;;4.93;;
61017;SDS011;48171;51.550;5.434;2022-08-21T00:40:18;9.52;;;4.95;;
61017;SDS011;48171;51.550;5.434;2022-08-21T00:42:48;9.93;;;5.15;;
61017;SDS011;48171;51.550;5.434;2022-08-21T00:45:14;9.05;;;5.03;;
61017;SDS011;48171;51.550;5.434;2022-08-21T00:47:40;11.20;;;5.10;;
61017;SDS011;48171;51.550;5.434;2022-08-21T00:50:06;8.48;;;5.10;;
61017;SDS011;48171;51.550;5.434;2022-08-21T00:52:33;13.55;;;5.50;;
61017;SDS011;48171;51.550;5.434;2022-08-21T00:55:02;8.65;;;5.60;;
61017;SDS011;48171;51.550;5.434;2022-08-21T00:57:32;9.65;;;4.95;;
61017;SDS011;48171;51.550;5.434;2022-08-21T01:00:04;8.73;;;5.07;;
61017;SDS011;48171;51.550;5.434;2022-08-21T01:02:34;14.68;;;5.05;;
61017;SDS011;48171;51.550;5.434;2022-08-21T01:04:59;8.70;;;5.07;;
61017;SDS011;48171;51.550;5.434;2022-08-21T01:07:25;7.75;;;5.05;;
61017;SDS011;48171;51.550;5.434;2022-08-21T01:09:50;9.55;;;4.80;;
61017;SDS011;48171;51.550;5.434;2022-08-21T01:12:17;9.38;;;4.90;;
61017;SDS011;48171;51.550;5.434;2022-08-21T01:14:42;11.10;;;5.18;;
61017;SDS011;48171;51.550;5.434;2022-08-21T01:17:10;11.55;;;4.80;;
61017;SDS011;48171;51.550;5.434;2022-08-21T01:19:37;14.25;;;5.45;;
61017;SDS011;48171;51.550;5.434;2022-08-21T01:22:03;9.18;;;4.78;;
61017;SDS011;48171;51.550;5.434;2022-08-21T01:24:29;10.50;;;4.97;;
61017;SDS011;48171;51.550;5.434;2022-08-21T01:26:56;10.88;;;5.22;;
61017;SDS011;48171;51.550;5.434;2022-08-21T01:31:53;9.52;;;5.25;;
61017;SDS011;48171;51.550;5.434;2022-08-21T01:34:19;9.77;;;5.15;;
61017;SDS011;48171;51.550;5.434;2022-08-21T01:36:45;11.23;;;5.38;;
61017;SDS011;48171;51.550;5.434;2022-08-21T01:39:11;10.25;;;5.20;;
61017;SDS011;48171;51.550;5.434;2022-08-21T01:41:37;10.70;;;5.57;;
61017;SDS011;48171;51.550;5.434;2022-08-21T01:44:03;10.23;;;5.43;;
61017;SDS011;48171;51.550;5.434;2022-08-21T01:46:29;8.77;;;5.35;;
61017;SDS011;48171;51.550;5.434;2022-08-21T01:48:54;9.07;;;5.38;;
61017;SDS011;48171;51.550;5.434;2022-08-21T01:51:19;11.93;;;5.68;;
61017;SDS011;48171;51.550;5.434;2022-08-21T01:53:45;12.70;;;5.75;;
61017;SDS011;48171;51.550;5.434;2022-08-21T01:56:11;12.65;;;5.93;;
61017;SDS011;48171;51.550;5.434;2022-08-21T01:58:39;11.55;;;5.88;;
61017;SDS011;48171;51.550;5.434;2022-08-21T02:01:06;9.77;;;5.88;;
61017;SDS011;48171;51.550;5.434;2022-08-21T02:03:32;14.38;;;5.93;;
61017;SDS011;48171;51.550;5.434;2022-08-21T02:05:57;9.25;;;5.80;;
61017;SDS011;48171;51.550;5.434;2022-08-21T02:08:23;11.48;;;5.53;;
61017;SDS011;48171;51.550;5.434;2022-08-21T02:10:48;9.90;;;5.40;;
61017;SDS011;48171;51.550;5.434;2022-08-21T02:13:15;11.32;;;5.85;;
61017;SDS011;48171;51.550;5.434;2022-08-21T02:15:41;7.95;;;5.10;;
61017;SDS011;48171;51.550;5.434;2022-08-21T02:18:06;9.30;;;5.63;;
61017;SDS011;48171;51.550;5.434;2022-08-21T02:20:33;11.63;;;5.60;;
61017;SDS011;48171;51.550;5.434;2022-08-21T02:23:01;11.02;;;5.07;;
61017;SDS011;48171;51.550;5.434;2022-08-21T02:25:27;12.48;;;5.68;;
61017;SDS011;48171;51.550;5.434;2022-08-21T02:27:53;9.88;;;5.57;;
61017;SDS011;48171;51.550;5.434;2022-08-21T02:30:33;11.15;;;5.57;;
61017;SDS011;48171;51.550;5.434;2022-08-21T02:33:03;11.25;;;6.20;;
61017;SDS011;48171;51.550;5.434;2022-08-21T02:35:29;10.80;;;6.40;;
61017;SDS011;48171;51.550;5.434;2022-08-21T02:37:56;10.00;;;5.35;;
61017;SDS011;48171;51.550;5.434;2022-08-21T02:40:25;11.50;;;5.43;;
61017;SDS011;48171;51.550;5.434;2022-08-21T02:42:52;12.40;;;6.40;;
61017;SDS011;48171;51.550;5.434;2022-08-21T02:45:18;10.93;;;6.07;;
61017;SDS011;48171;51.550;5.434;2022-08-21T02:47:49;10.13;;;5.47;;
61017;SDS011;48171;51.550;5.434;2022-08-21T02:50:17;11.13;;;6.00;;
61017;SDS011;48171;51.550;5.434;2022-08-21T02:55:10;11.95;;;6.07;;
61017;SDS011;48171;51.550;5.434;2022-08-21T02:57:36;10.52;;;6.22;;
61017;SDS011;48171;51.550;5.434;2022-08-21T03:00:02;9.73;;;6.22;;
61017;SDS011;48171;51.550;5.434;2022-08-21T03:02:29;12.50;;;6.22;;
61017;SDS011;48171;51.550;5.434;2022-08-21T03:04:54;11.70;;;6.68;;
61017;SDS011;48171;51.550;5.434;2022-08-21T03:07:20;10.93;;;7.07;;
61017;SDS011;48171;51.550;5.434;2022-08-21T03:09:46;12.93;;;6.82;;
61017;SDS011;48171;51.550;5.434;2022-08-21T03:12:11;12.98;;;6.82;;
61017;SDS011;48171;51.550;5.434;2022-08-21T03:14:37;11.73;;;7.10;;
61017;SDS011;48171;51.550;5.434;2022-08-21T03:17:03;12.55;;;7.20;;
61017;SDS011;48171;51.550;5.434;2022-08-21T03:19:28;11.65;;;7.18;;
61017;SDS011;48171;51.550;5.434;2022-08-21T03:21:54;12.15;;;7.18;;
61017;SDS011;48171;51.550;5.434;2022-08-21T03:24:19;12.13;;;7.50;;
61017;SDS011;48171;51.550;5.434;2022-08-21T03:26:44;15.63;;;6.95;;
61017;SDS011;48171;51.550;5.434;2022-08-21T03:29:10;15.93;;;8.50;;
61017;SDS011;48171;51.550;5.434;2022-08-21T03:31:35;13.50;;;7.53;;
61017;SDS011;48171;51.550;5.434;2022-08-21T03:34:00;14.88;;;7.60;;
61017;SDS011;48171;51.550;5.434;2022-08-21T03:36:26;13.65;;;7.32;;
61017;SDS011;48171;51.550;5.434;2022-08-21T03:38:51;13.70;;;7.93;;
61017;SDS011;48171;51.550;5.434;2022-08-21T03:41:16;12.63;;;7.95;;
61017;SDS011;48171;51.550;5.434;2022-08-21T03:43:42;12.25;;;7.10;;
61017;SDS011;48171;51.550;5.434;2022-08-21T03:46:07;11.10;;;7.65;;
61017;SDS011;48171;51.550;5.434;2022-08-21T03:48:33;14.85;;;9.05;;
61017;SDS011;48171;51.550;5.434;2022-08-21T03:50:59;15.63;;;8.40;;
61017;SDS011;48171;51.550;5.434;2022-08-21T03:53:24;17.58;;;9.43;;
61017;SDS011;48171;51.550;5.434;2022-08-21T03:55:50;16.70;;;9.32;;
61017;SDS011;48171;51.550;5.434;2022-08-21T03:58:18;15.48;;;9.90;;
61017;SDS011;48171;51.550;5.434;2022-08-21T04:00:47;17.02;;;11.18;;
61017;SDS011;48171;51.550;5.434;2022-08-21T04:03:13;21.20;;;11.27;;
61017;SDS011;48171;51.550;5.434;2022-08-21T04:05:40;21.80;;;11.30;;
61017;SDS011;48171;51.550;5.434;2022-08-21T04:08:06;19.63;;;10.82;;
61017;SDS011;48171;51.550;5.434;2022-08-21T04:10:33;21.05;;;11.98;;
61017;SDS011;48171;51.550;5.434;2022-08-21T04:12:59;19.38;;;10.95;;
61017;SDS011;48171;51.550;5.434;2022-08-21T04:15:25;20.77;;;12.20;;
61017;SDS011;48171;51.550;5.434;2022-08-21T04:17:52;20.52;;;12.30;;
61017;SDS011;48171;51.550;5.434;2022-08-21T04:20:18;17.52;;;11.23;;
61017;SDS011;48171;51.550;5.434;2022-08-21T04:22:45;18.48;;;12.15;;
61017;SDS011;48171;51.550;5.434;2022-08-21T04:25:11;18.70;;;11.90;;
61017;SDS011;48171;51.550;5.434;2022-08-21T04:27:37;19.52;;;11.48;;
61017;SDS011;48171;51.550;5.434;2022-08-21T04:30:04;19.33;;;12.23;;
61017;SDS011;48171;51.550;5.434;2022-08-21T04:32:29;22.35;;;11.57;;
61017;SDS011;48171;51.550;5.434;2022-08-21T04:35:05;20.30;;;11.80;;
61017;SDS011;48171;51.550;5.434;2022-08-21T04:37:33;17.13;;;11.15;;
61017;SDS011;48171;51.550;5.434;2022-08-21T04:39:59;22.30;;;12.00;;
61017;SDS011;48171;51.550;5.434;2022-08-21T04:42:25;22.05;;;11.82;;
61017;SDS011;48171;51.550;5.434;2022-08-21T04:44:51;19.95;;;10.85;;
61017;SDS011;48171;51.550;5.434;2022-08-21T04:47:17;18.17;;;10.40;;
61017;SDS011;48171;51.550;5.434;2022-08-21T04:49:43;20.08;;;11.38;;
61017;SDS011;48171;51.550;5.434;2022-08-21T04:52:09;22.33;;;10.70;;
61017;SDS011;48171;51.550;5.434;2022-08-21T04:54:36;17.98;;;10.98;;
61017;SDS011;48171;51.550;5.434;2022-08-21T04:57:02;17.08;;;10.73;;
61017;SDS011;48171;51.550;5.434;2022-08-21T04:59:43;19.27;;;11.25;;
61017;SDS011;48171;51.550;5.434;2022-08-21T05:04:42;23.77;;;10.75;;
61017;SDS011;48171;51.550;5.434;2022-08-21T05:07:12;21.58;;;10.77;;
61017;SDS011;48171;51.550;5.434;2022-08-21T05:09:42;20.67;;;11.30;;
61017;SDS011;48171;51.550;5.434;2022-08-21T05:12:08;20.20;;;11.13;;
61017;SDS011;48171;51.550;5.434;2022-08-21T05:14:34;21.65;;;11.00;;
61017;SDS011;48171;51.550;5.434;2022-08-21T05:17:00;26.55;;;11.60;;
61017;SDS011;48171;51.550;5.434;2022-08-21T05:19:25;20.60;;;11.20;;
61017;SDS011;48171;51.550;5.434;2022-08-21T05:21:50;22.63;;;10.82;;
61017;SDS011;48171;51.550;5.434;2022-08-21T05:24:16;19.77;;;10.10;;
61017;SDS011;48171;51.550;5.434;2022-08-21T05:26:42;22.05;;;11.07;;
61017;SDS011;48171;51.550;5.434;2022-08-21T05:29:08;24.58;;;10.93;;
61017;SDS011;48171;51.550;5.434;2022-08-21T05:31:33;21.92;;;10.65;;
61017;SDS011;48171;51.550;5.434;2022-08-21T05:33:59;15.98;;;10.35;;
61017;SDS011;48171;51.550;5.434;2022-08-21T05:36:24;21.83;;;10.63;;
61017;SDS011;48171;51.550;5.434;2022-08-21T05:38:50;20.70;;;9.63;;
61017;SDS011;48171;51.550;5.434;2022-08-21T05:41:16;21.58;;;9.93;;
61017;SDS011;48171;51.550;5.434;2022-08-21T05:43:42;20.88;;;10.55;;
61017;SDS011;48171;51.550;5.434;2022-08-21T05:46:07;19.15;;;9.60;;
61017;SDS011;48171;51.550;5.434;2022-08-21T05:48:33;18.38;;;9.95;;
61017;SDS011;48171;51.550;5.434;2022-08-21T05:51:04;18.15;;;10.23;;
61017;SDS011;48171;51.550;5.434;2022-08-21T05:53:31;17.95;;;9.75;;
61017;SDS011;48171;51.550;5.434;2022-08-21T05:55:56;19.67;;;9.57;;
61017;SDS011;48171;51.550;5.434;2022-08-21T05:58:22;15.77;;;10.13;;
61017;SDS011;48171;51.550;5.434;2022-08-21T06:00:51;19.48;;;9.93;;
61017;SDS011;48171;51.550;5.434;2022-08-21T06:03:18;19.00;;;9.98;;
61017;SDS011;48171;51.550;5.434;2022-08-21T06:05:46;18.30;;;8.90;;
61017;SDS011;48171;51.550;5.434;2022-08-21T06:08:12;19.73;;;8.95;;
61017;SDS011;48171;51.550;5.434;2022-08-21T06:10:37;17.50;;;8.68;;
61017;SDS011;48171;51.550;5.434;2022-08-21T06:13:03;17.40;;;8.70;;
61017;SDS011;48171;51.550;5.434;2022-08-21T06:15:29;20.45;;;8.80;;
61017;SDS011;48171;51.550;5.434;2022-08-21T06:17:54;20.27;;;9.02;;
61017;SDS011;48171;51.550;5.434;2022-08-21T06:20:20;17.40;;;8.02;;
61017;SDS011;48171;51.550;5.434;2022-08-21T06:22:46;18.17;;;8.27;;
61017;SDS011;48171;51.550;5.434;2022-08-21T06:25:11;21.95;;;9.00;;
61017;SDS011;48171;51.550;5.434;2022-08-21T06:27:37;24.02;;;8.75;;
61017;SDS011;48171;51.550;5.434;2022-08-21T06:30:03;21.50;;;8.65;;
61017;SDS011;48171;51.550;5.434;2022-08-21T06:32:30;17.05;;;8.23;;
61017;SDS011;48171;51.550;5.434;2022-08-21T06:34:55;15.73;;;8.10;;
61017;SDS011;48171;51.550;5.434;2022-08-21T06:37:21;21.65;;;8.75;;
61017;SDS011;48171;51.550;5.434;2022-08-21T06:39:47;18.33;;;8.18;;
61017;SDS011;48171;51.550;5.434;2022-08-21T06:42:13;21.52;;;8.70;;
61017;SDS011;48171;51.550;5.434;2022-08-21T06:44:42;20.15;;;8.70;;
61017;SDS011;48171;51.550;5.434;2022-08-21T06:47:08;18.40;;;8.93;;
61017;SDS011;48171;51.550;5.434;2022-08-21T06:49:33;17.75;;;9.15;;
61017;SDS011;48171;51.550;5.434;2022-08-21T06:51:59;17.88;;;8.80;;
61017;SDS011;48171;51.550;5.434;2022-08-21T06:54:25;19.42;;;8.88;;
61017;SDS011;48171;51.550;5.434;2022-08-21T06:56:50;19.48;;;9.13;;
61017;SDS011;48171;51.550;5.434;2022-08-21T06:59:15;21.98;;;10.05;;
61017;SDS011;48171;51.550;5.434;2022-08-21T07:01:41;18.88;;;9.73;;
61017;SDS011;48171;51.550;5.434;2022-08-21T07:04:06;24.23;;;10.35;;
61017;SDS011;48171;51.550;5.434;2022-08-21T07:06:32;24.63;;;9.50;;
61017;SDS011;48171;51.550;5.434;2022-08-21T07:08:57;29.38;;;10.32;;
61017;SDS011;48171;51.550;5.434;2022-08-21T07:11:23;24.90;;;9.57;;
61017;SDS011;48171;51.550;5.434;2022-08-21T07:13:49;20.67;;;10.25;;
61017;SDS011;48171;51.550;5.434;2022-08-21T07:16:17;25.33;;;10.30;;
61017;SDS011;48171;51.550;5.434;2022-08-21T07:18:43;21.52;;;9.85;;
61017;SDS011;48171;51.550;5.434;2022-08-21T07:21:08;21.58;;;10.52;;
61017;SDS011;48171;51.550;5.434;2022-08-21T07:23:36;24.02;;;9.60;;
61017;SDS011;48171;51.550;5.434;2022-08-21T07:26:06;28.40;;;10.65;;
61017;SDS011;48171;51.550;5.434;2022-08-21T07:28:32;27.70;;;10.57;;
61017;SDS011;48171;51.550;5.434;2022-08-21T07:30:59;20.02;;;10.70;;
61017;SDS011;48171;51.550;5.434;2022-08-21T07:33:26;26.90;;;10.27;;
61017;SDS011;48171;51.550;5.434;2022-08-21T07:35:53;24.95;;;10.02;;
61017;SDS011;48171;51.550;5.434;2022-08-21T07:38:19;26.40;;;9.77;;
61017;SDS011;48171;51.550;5.434;2022-08-21T07:40:45;22.75;;;10.32;;
61017;SDS011;48171;51.550;5.434;2022-08-21T07:43:12;21.73;;;9.88;;
61017;SDS011;48171;51.550;5.434;2022-08-21T07:45:38;18.90;;;8.65;;
61017;SDS011;48171;51.550;5.434;2022-08-21T07:48:03;25.65;;;9.20;;
61017;SDS011;48171;51.550;5.434;2022-08-21T07:50:29;21.10;;;8.90;;
61017;SDS011;48171;51.550;5.434;2022-08-21T07:52:54;22.05;;;9.65;;
61017;SDS011;48171;51.550;5.434;2022-08-21T07:55:20;22.77;;;9.45;;
61017;SDS011;48171;51.550;5.434;2022-08-21T07:57:46;24.20;;;8.85;;
61017;SDS011;48171;51.550;5.434;2022-08-21T08:00:15;22.75;;;9.10;;
61017;SDS011;48171;51.550;5.434;2022-08-21T08:02:44;24.63;;;8.27;;
61017;SDS011;48171;51.550;5.434;2022-08-21T08:05:11;17.17;;;7.55;;
61017;SDS011;48171;51.550;5.434;2022-08-21T08:07:37;21.92;;;7.93;;
61017;SDS011;48171;51.550;5.434;2022-08-21T08:10:03;27.08;;;8.55;;
61017;SDS011;48171;51.550;5.434;2022-08-21T08:12:32;17.77;;;7.70;;
61017;SDS011;48171;51.550;5.434;2022-08-21T08:14:59;21.73;;;6.88;;
61017;SDS011;48171;51.550;5.434;2022-08-21T08:17:27;21.55;;;7.22;;
61017;SDS011;48171;51.550;5.434;2022-08-21T08:19:53;20.75;;;6.80;;
61017;SDS011;48171;51.550;5.434;2022-08-21T08:22:19;17.42;;;6.32;;
61017;SDS011;48171;51.550;5.434;2022-08-21T08:24:48;19.50;;;6.30;;
61017;SDS011;48171;51.550;5.434;2022-08-21T08:27:15;20.27;;;6.53;;
61017;SDS011;48171;51.550;5.434;2022-08-21T08:29:41;22.70;;;6.07;;
61017;SDS011;48171;51.550;5.434;2022-08-21T08:32:06;21.73;;;7.00;;
61017;SDS011;48171;51.550;5.434;2022-08-21T08:34:37;18.85;;;6.20;;
61017;SDS011;48171;51.550;5.434;2022-08-21T08:37:04;17.27;;;6.47;;
61017;SDS011;48171;51.550;5.434;2022-08-21T08:39:30;17.60;;;6.60;;
61017;SDS011;48171;51.550;5.434;2022-08-21T08:41:57;14.43;;;6.13;;
61017;SDS011;48171;51.550;5.434;2022-08-21T08:44:37;21.77;;;6.15;;
61017;SDS011;48171;51.550;5.434;2022-08-21T08:47:02;20.20;;;6.03;;
61017;SDS011;48171;51.550;5.434;2022-08-21T08:52:27;21.45;;;7.20;;
61017;SDS011;48171;51.550;5.434;2022-08-21T08:55:05;18.52;;;6.78;;
61017;SDS011;48171;51.550;5.434;2022-08-21T08:57:33;19.13;;;6.45;;
61017;SDS011;48171;51.550;5.434;2022-08-21T09:00:00;17.52;;;6.10;;
61017;SDS011;48171;51.550;5.434;2022-08-21T09:02:28;17.90;;;5.32;;
61017;SDS011;48171;51.550;5.434;2022-08-21T09:04:54;20.80;;;6.22;;
61017;SDS011;48171;51.550;5.434;2022-08-21T09:07:25;18.30;;;6.57;;
61017;SDS011;48171;51.550;5.434;2022-08-21T09:23:29;13.65;;;4.65;;
61017;SDS011;48171;51.550;5.434;2022-08-21T09:27:06;12.70;;;4.23;;
61017;SDS011;48171;51.550;5.434;2022-08-21T09:29:16;16.15;;;5.38;;
61017;SDS011;48171;51.550;5.434;2022-08-21T09:31:46;15.18;;;5.20;;
61017;SDS011;48171;51.550;5.434;2022-08-21T09:34:11;14.88;;;4.93;;
61017;SDS011;48171;51.550;5.434;2022-08-21T09:36:40;15.52;;;5.22;;
61017;SDS011;48171;51.550;5.434;2022-08-21T09:39:08;12.65;;;4.65;;
61017;SDS011;48171;51.550;5.434;2022-08-21T09:41:36;13.30;;;4.13;;
61017;SDS011;48171;51.550;5.434;2022-08-21T09:44:03;15.20;;;4.82;;
61017;SDS011;48171;51.550;5.434;2022-08-21T09:46:30;12.57;;;5.05;;
61017;SDS011;48171;51.550;5.434;2022-08-21T09:48:57;13.05;;;4.97;;
61017;SDS011;48171;51.550;5.434;2022-08-21T09:51:29;17.48;;;4.82;;
61017;SDS011;48171;51.550;5.434;2022-08-21T09:56:33;17.73;;;6.80;;
61017;SDS011;48171;51.550;5.434;2022-08-21T09:59:36;15.02;;;6.55;;
61017;SDS011;48171;51.550;5.434;2022-08-21T10:04:50;12.23;;;5.50;;
61017;SDS011;48171;51.550;5.434;2022-08-21T10:07:21;15.73;;;6.32;;
61017;SDS011;48171;51.550;5.434;2022-08-21T10:15:28;13.20;;;6.00;;
61017;SDS011;48171;51.550;5.434;2022-08-21T10:18:03;12.70;;;6.30;;
61017;SDS011;48171;51.550;5.434;2022-08-21T10:25:57;11.55;;;5.88;;
61017;SDS011;48171;51.550;5.434;2022-08-21T10:28:33;10.85;;;6.55;;
61017;SDS011;48171;51.550;5.434;2022-08-21T10:34:01;16.70;;;7.57;;
61017;SDS011;48171;51.550;5.434;2022-08-21T10:36:34;15.10;;;8.07;;
61017;SDS011;48171;51.550;5.434;2022-08-21T10:39:12;15.27;;;8.77;;
61017;SDS011;48171;51.550;5.434;2022-08-21T10:44:49;15.50;;;8.55;;
61017;SDS011;48171;51.550;5.434;2022-08-21T10:47:34;11.80;;;10.50;;
61017;SDS011;48171;51.550;5.434;2022-08-21T10:53:05;11.95;;;9.20;;
61017;SDS011;48171;51.550;5.434;2022-08-21T10:55:55;12.55;;;7.72;;
61017;SDS011;48171;51.550;5.434;2022-08-21T10:58:31;14.05;;;8.15;;
61017;SDS011;48171;51.550;5.434;2022-08-21T11:01:10;16.17;;;8.85;;
61017;SDS011;48171;51.550;5.434;2022-08-21T11:06:37;12.38;;;7.40;;
61017;SDS011;48171;51.550;5.434;2022-08-21T11:09:12;13.32;;;7.82;;
61017;SDS011;48171;51.550;5.434;2022-08-21T11:11:47;14.48;;;9.75;;
61017;SDS011;48171;51.550;5.434;2022-08-21T11:17:34;13.27;;;8.90;;
61017;SDS011;48171;51.550;5.434;2022-08-21T11:20:10;15.35;;;9.02;;
61017;SDS011;48171;51.550;5.434;2022-08-21T11:25:26;13.65;;;7.30;;
61017;SDS011;48171;51.550;5.434;2022-08-21T11:28:00;13.30;;;7.50;;
61017;SDS011;48171;51.550;5.434;2022-08-21T11:30:33;11.65;;;6.47;;
61017;SDS011;48171;51.550;5.434;2022-08-21T11:38:57;11.43;;;5.95;;
61017;SDS011;48171;51.550;5.434;2022-08-21T11:41:34;13.27;;;5.47;;
61017;SDS011;48171;51.550;5.434;2022-08-21T11:44:18;13.75;;;5.82;;
61017;SDS011;48171;51.550;5.434;2022-08-21T11:49:45;10.85;;;5.47;;
61017;SDS011;48171;51.550;5.434;2022-08-21T11:55:05;13.80;;;4.63;;
61017;SDS011;48171;51.550;5.434;2022-08-21T12:00:37;7.90;;;3.97;;
61017;SDS011;48171;51.550;5.434;2022-08-21T12:03:12;10.60;;;4.35;;
61017;SDS011;48171;51.550;5.434;2022-08-21T12:05:41;9.00;;;3.72;;
61017;SDS011;48171;51.550;5.434;2022-08-21T12:08:26;10.35;;;4.00;;
61017;SDS011;48171;51.550;5.434;2022-08-21T12:11:02;8.32;;;4.18;;
61017;SDS011;48171;51.550;5.434;2022-08-21T12:13:34;10.32;;;3.78;;
61017;SDS011;48171;51.550;5.434;2022-08-21T12:16:06;8.40;;;3.70;;
61017;SDS011;48171;51.550;5.434;2022-08-21T12:18:41;10.77;;;3.72;;
61017;SDS011;48171;51.550;5.434;2022-08-21T12:21:24;10.15;;;3.15;;
61017;SDS011;48171;51.550;5.434;2022-08-21T12:26:55;11.85;;;3.95;;
61017;SDS011;48171;51.550;5.434;2022-08-21T12:29:26;10.63;;;3.22;;
61017;SDS011;48171;51.550;5.434;2022-08-21T12:35:05;8.52;;;3.58;;
61017;SDS011;48171;51.550;5.434;2022-08-21T12:37:37;11.80;;;3.78;;
61017;SDS011;48171;51.550;5.434;2022-08-21T12:43:11;8.70;;;4.13;;
61017;SDS011;48171;51.550;5.434;2022-08-21T12:45:43;8.75;;;4.40;;
61017;SDS011;48171;51.550;5.434;2022-08-21T12:48:26;8.00;;;3.80;;
61017;SDS011;48171;51.550;5.434;2022-08-21T12:50:57;10.60;;;3.85;;
61017;SDS011;48171;51.550;5.434;2022-08-21T12:56:21;14.40;;;5.00;;
61017;SDS011;48171;51.550;5.434;2022-08-21T12:58:49;10.73;;;4.43;;
61017;SDS011;48171;51.550;5.434;2022-08-21T13:01:19;10.43;;;4.00;;
61017;SDS011;48171;51.550;5.434;2022-08-21T13:03:49;11.23;;;3.65;;
61017;SDS011;48171;51.550;5.434;2022-08-21T13:06:17;9.65;;;2.97;;
61017;SDS011;48171;51.550;5.434;2022-08-21T13:08:45;8.63;;;3.63;;
61017;SDS011;48171;51.550;5.434;2022-08-21T13:11:13;11.93;;;3.70;;
61017;SDS011;48171;51.550;5.434;2022-08-21T13:13:42;8.45;;;2.95;;
61017;SDS011;48171;51.550;5.434;2022-08-21T13:16:08;9.77;;;3.05;;
61017;SDS011;48171;51.550;5.434;2022-08-21T13:18:35;10.25;;;2.90;;
61017;SDS011;48171;51.550;5.434;2022-08-21T13:21:18;10.40;;;2.70;;
61017;SDS011;48171;51.550;5.434;2022-08-21T13:23:43;9.85;;;3.05;;
61017;SDS011;48171;51.550;5.434;2022-08-21T13:26:13;9.13;;;3.00;;
61017;SDS011;48171;51.550;5.434;2022-08-21T13:28:42;7.25;;;2.30;;
61017;SDS011;48171;51.550;5.434;2022-08-21T13:31:12;10.93;;;3.40;;
61017;SDS011;48171;51.550;5.434;2022-08-21T13:33:38;11.07;;;2.83;;
61017;SDS011;48171;51.550;5.434;2022-08-21T13:36:10;9.68;;;3.13;;
61017;SDS011;48171;51.550;5.434;2022-08-21T13:38:40;11.18;;;3.10;;
61017;SDS011;48171;51.550;5.434;2022-08-21T13:43:44;8.07;;;2.65;;
61017;SDS011;48171;51.550;5.434;2022-08-21T13:46:12;10.20;;;3.22;;
61017;SDS011;48171;51.550;5.434;2022-08-21T13:48:39;12.75;;;3.13;;
61017;SDS011;48171;51.550;5.434;2022-08-21T13:51:06;9.25;;;3.00;;
61017;SDS011;48171;51.550;5.434;2022-08-21T13:56:06;12.30;;;3.50;;
61017;SDS011;48171;51.550;5.434;2022-08-21T13:58:44;7.55;;;3.00;;
61017;SDS011;48171;51.550;5.434;2022-08-21T14:01:25;10.70;;;3.08;;
61017;SDS011;48171;51.550;5.434;2022-08-21T14:03:55;9.00;;;3.35;;
61017;SDS011;48171;51.550;5.434;2022-08-21T14:06:26;7.78;;;2.65;;
61017;SDS011;48171;51.550;5.434;2022-08-21T14:08:57;12.15;;;2.90;;
61017;SDS011;48171;51.550;5.434;2022-08-21T14:11:25;10.75;;;3.17;;
61017;SDS011;48171;51.550;5.434;2022-08-21T14:16:21;10.40;;;3.13;;
61017;SDS011;48171;51.550;5.434;2022-08-21T14:19:07;9.93;;;2.95;;
61017;SDS011;48171;51.550;5.434;2022-08-21T14:21:43;10.07;;;2.83;;
61017;SDS011;48171;51.550;5.434;2022-08-21T14:24:12;10.18;;;3.47;;
61017;SDS011;48171;51.550;5.434;2022-08-21T14:27:03;10.95;;;3.40;;
61017;SDS011;48171;51.550;5.434;2022-08-21T14:29:38;13.00;;;3.22;;
61017;SDS011;48171;51.550;5.434;2022-08-21T14:32:09;12.57;;;3.35;;
61017;SDS011;48171;51.550;5.434;2022-08-21T14:34:38;6.95;;;2.88;;
61017;SDS011;48171;51.550;5.434;2022-08-21T14:37:03;12.65;;;3.95;;
61017;SDS011;48171;51.550;5.434;2022-08-21T14:39:28;8.50;;;3.58;;
61017;SDS011;48171;51.550;5.434;2022-08-21T14:41:53;10.15;;;3.88;;
61017;SDS011;48171;51.550;5.434;2022-08-21T14:44:21;11.75;;;3.75;;
61017;SDS011;48171;51.550;5.434;2022-08-21T14:46:46;8.38;;;3.13;;
61017;SDS011;48171;51.550;5.434;2022-08-21T14:49:12;8.18;;;3.42;;
61017;SDS011;48171;51.550;5.434;2022-08-21T14:51:37;11.35;;;3.90;;
61017;SDS011;48171;51.550;5.434;2022-08-21T14:54:03;15.25;;;4.07;;
61017;SDS011;48171;51.550;5.434;2022-08-21T14:56:29;14.07;;;3.85;;
61017;SDS011;48171;51.550;5.434;2022-08-21T14:58:56;10.15;;;3.65;;
61017;SDS011;48171;51.550;5.434;2022-08-21T15:01:29;8.85;;;3.53;;
61017;SDS011;48171;51.550;5.434;2022-08-21T15:03:56;12.60;;;4.10;;
61017;SDS011;48171;51.550;5.434;2022-08-21T15:06:22;11.00;;;3.60;;
61017;SDS011;48171;51.550;5.434;2022-08-21T15:08:47;14.55;;;3.40;;
61017;SDS011;48171;51.550;5.434;2022-08-21T15:11:15;8.35;;;2.65;;
61017;SDS011;48171;51.550;5.434;2022-08-21T15:13:43;8.57;;;2.88;;
61017;SDS011;48171;51.550;5.434;2022-08-21T15:16:09;12.23;;;3.58;;
61017;SDS011;48171;51.550;5.434;2022-08-21T15:18:36;9.90;;;3.92;;
61017;SDS011;48171;51.550;5.434;2022-08-21T15:21:01;9.02;;;2.85;;
61017;SDS011;48171;51.550;5.434;2022-08-21T15:23:26;12.38;;;3.30;;
61017;SDS011;48171;51.550;5.434;2022-08-21T15:25:52;9.23;;;3.08;;
61017;SDS011;48171;51.550;5.434;2022-08-21T15:28:18;10.77;;;3.10;;
61017;SDS011;48171;51.550;5.434;2022-08-21T15:30:45;12.32;;;3.00;;
61017;SDS011;48171;51.550;5.434;2022-08-21T15:33:11;8.60;;;2.83;;
61017;SDS011;48171;51.550;5.434;2022-08-21T15:35:37;5.85;;;2.90;;
61017;SDS011;48171;51.550;5.434;2022-08-21T15:38:02;12.20;;;3.45;;
61017;SDS011;48171;51.550;5.434;2022-08-21T15:40:28;10.38;;;2.97;;
61017;SDS011;48171;51.550;5.434;2022-08-21T15:42:56;9.63;;;2.80;;
61017;SDS011;48171;51.550;5.434;2022-08-21T15:45:23;11.32;;;3.20;;
61017;SDS011;48171;51.550;5.434;2022-08-21T15:47:49;10.38;;;3.08;;
61017;SDS011;48171;51.550;5.434;2022-08-21T15:50:16;11.02;;;3.05;;
61017;SDS011;48171;51.550;5.434;2022-08-21T15:52:41;8.07;;;3.00;;
61017;SDS011;48171;51.550;5.434;2022-08-21T15:55:07;9.45;;;3.72;;
61017;SDS011;48171;51.550;5.434;2022-08-21T15:57:33;9.48;;;3.05;;
61017;SDS011;48171;51.550;5.434;2022-08-21T16:00:01;10.38;;;3.50;;
61017;SDS011;48171;51.550;5.434;2022-08-21T16:02:37;9.52;;;3.65;;
61017;SDS011;48171;51.550;5.434;2022-08-21T16:05:04;9.73;;;3.38;;
61017;SDS011;48171;51.550;5.434;2022-08-21T16:07:30;7.90;;;3.45;;
61017;SDS011;48171;51.550;5.434;2022-08-21T16:09:55;8.68;;;4.00;;
61017;SDS011;48171;51.550;5.434;2022-08-21T16:12:25;9.95;;;3.80;;
61017;SDS011;48171;51.550;5.434;2022-08-21T16:14:55;7.68;;;3.28;;